Latest Weather Observations for Dennes Point

IDT60801

Issued at 1:31 pm EST Tuesday 30 June 2015 (issued every 30 minutes, with the page automatically refreshed every 10 minutes)

About weather observations | Map of weather stations | Latest weather observations for TAS | Other Formats
Station Details ID: 094255 Name: DENNES POINT Lat: -43.06 Lon: 147.36 Height: 5.67 m
Data from the previous 72 hours. | See also: Recent months at Dennes Point
Date/Time
EST
Temp
°C
App
Temp
°C
Dew
Point
Rel
Hum
%
Delta-T
°C
Wind Press
QNH
hPa
Press
MSL
hPa
Rain
since 9 am
mm
Dir
 
Spd
km/h
Gust
km/h
Spd
kts
Gust
kts
30/01:30pm 12.8 11.6 6.6 66 2.9 N 2 4 1 2 1023.1 1023.1 0.0
30/01:00pm 13.1 11.2 6.5 64 3.1 NNE 6 7 3 4 1023.3 1023.3 0.0
30/12:30pm 13.2 11.5 7.6 69 2.7 ENE 6 7 3 4 1023.5 1023.5 0.0
30/12:00pm 12.6 11.0 6.2 65 3.0 NE 4 6 2 3 1023.7 1023.7 0.0
30/11:30am 11.9 9.4 6.4 69 2.6 NNE 9 11 5 6 1024.0 1024.0 0.0
30/11:00am 11.5 8.5 6.2 70 2.5 N 11 17 6 9 1024.5 1024.5 0.0
30/10:30am 12.8 10.7 5.9 63 3.2 WNW 6 9 3 5 1024.8 1024.8 0.0
30/10:00am 12.3 9.0 6.4 67 2.8 WNW 13 15 7 8 1024.7 1024.7 0.0
30/09:30am 10.7 8.1 5.9 72 2.2 NNE 9 17 5 9 1024.8 1024.8 0.0
30/09:00am 11.4 8.3 5.7 68 2.6 WNW 11 15 6 8 1024.8 1024.8 0.0
30/08:30am 10.8 7.1 4.7 66 2.8 NW 13 17 7 9 1024.7 1024.7 0.0
30/08:00am 10.8 7.9 4.5 65 2.8 NW 9 17 5 9 1024.4 1024.4 0.0
30/07:30am 9.9 7.5 4.5 69 2.4 W 6 11 3 6 1024.2 1024.2 0.0
30/07:00am 10.0 8.2 3.7 65 2.7 SSE 2 6 1 3 1024.1 1024.1 0.0
30/06:30am 10.5 8.0 3.8 63 3.0 SSW 6 13 3 7 1023.8 1023.8 0.0
30/06:00am 10.0 8.2 3.5 64 2.8 NE 2 9 1 5 1023.4 1023.4 0.0
30/05:30am 10.9 8.4 3.5 60 3.3 NW 6 11 3 6 1023.2 1023.2 0.0
30/05:00am 10.9 8.4 3.7 61 3.2 N 6 11 3 6 1023.0 1023.0 0.0
30/04:30am 11.1 8.9 3.2 58 3.5 SSW 4 9 2 5 1022.8 1022.8 0.0
30/04:00am 11.0 7.6 4.0 62 3.1 WNW 11 19 6 10 1023.0 1023.0 0.0
30/03:30am 11.5 6.9 3.8 59 3.4 NW 17 28 9 15 1023.1 1023.1 0.0
30/03:00am 11.4 7.7 4.2 61 3.2 NW 13 19 7 10 1023.2 1023.2 0.0
30/02:30am 11.5 6.5 3.8 59 3.4 WNW 19 24 10 13 1023.2 1023.2 0.0
30/02:00am 11.5 6.0 4.0 60 3.3 WNW 22 32 12 17 1023.3 1023.3 0.0
30/01:30am 11.6 5.0 4.1 60 3.4 WNW 28 35 15 19 1023.3 1023.3 0.0
30/01:00am 11.7 6.2 4.0 59 3.4 WNW 22 28 12 15 1023.5 1023.5 0.0
30/12:30am 11.8 6.3 4.1 59 3.5 WNW 22 35 12 19 1023.5 1023.5 0.0
30/12:00am 12.1 5.9 4.1 58 3.6 NW 26 37 14 20 1023.7 1023.7 0.0
 
Date/Time
EST
Temp
°C
App
Temp
°C
Dew
Point
Rel
Hum
%
Delta-T
°C
Wind Press
QNH
hPa
Press
MSL
hPa
Rain
since 9 am
mm
Dir
 
Spd
km/h
Gust
km/h
Spd
kts
Gust
kts
29/11:30pm 12.2 5.6 4.2 58 3.6 NW 28 37 15 20 1023.6 1023.6 0.0
29/11:00pm 11.9 7.0 4.2 59 3.4 NW 19 24 10 13 1023.7 1023.7 0.0
29/10:30pm 11.8 5.6 4.5 61 3.3 WNW 26 33 14 18 1023.9 1023.9 0.0
29/10:00pm 11.7 6.9 4.4 61 3.3 WNW 19 33 10 18 1024.0 1024.0 0.0
29/09:30pm 11.6 5.4 4.3 61 3.3 W 26 33 14 18 1024.1 1024.1 0.0
29/09:00pm 11.9 7.1 4.6 61 3.3 WNW 19 26 10 14 1024.1 1024.1 0.0
29/08:30pm 11.7 7.7 4.9 63 3.1 NW 15 20 8 11 1024.2 1024.2 0.0
29/08:00pm 11.9 7.9 4.9 62 3.2 NW 15 20 8 11 1024.2 1024.2 0.0
29/07:30pm 11.8 7.2 5.4 65 3.0 WNW 19 28 10 15 1024.3 1024.3 0.0
29/07:00pm 12.2 9.8 5.1 62 3.3 NW 7 15 4 8 1024.3 1024.3 0.0
29/06:30pm 12.3 8.7 5.0 61 3.4 WNW 13 17 7 9 1024.1 1024.1 0.0
29/06:00pm 10.7 8.4 5.0 68 2.6 WSW 6 9 3 5 1023.9 1023.9 0.0
29/05:30pm 11.3 6.8 6.0 70 2.5 W 19 22 10 12 1023.6 1023.6 0.0
29/05:00pm 13.0 7.4 5.4 60 3.5 WNW 24 32 13 17 1023.4 1023.4 0.0
29/04:30pm 13.4 7.4 5.3 58 3.8 WNW 26 32 14 17 1023.4 1023.4 0.0
29/04:00pm 14.1 8.9 5.5 56 4.0 WNW 22 28 12 15 1023.3 1023.3 0.0
29/03:30pm 14.6 10.3 5.4 54 4.3 WNW 17 24 9 13 1023.4 1023.4 0.0
29/03:00pm 14.9 10.3 5.7 54 4.4 WNW 19 24 10 13 1023.0 1023.0 0.0
29/02:30pm 15.5 10.7 5.4 51 4.8 WNW 20 33 11 18 1023.1 1023.1 0.0
29/02:00pm 15.3 12.7 6.3 55 4.3 W 9 13 5 7 1023.2 1023.2 0.0
29/01:30pm 15.5 10.8 6.0 53 4.6 WSW 20 26 11 14 1023.2 1023.2 0.0
29/01:00pm 15.3 9.3 5.5 52 4.6 W 26 33 14 18 1023.5 1023.5 0.0
29/12:30pm 15.4 11.3 6.4 55 4.4 W 17 26 9 14 1023.8 1023.8 0.0
29/12:00pm 15.3 11.4 5.5 52 4.6 WNW 15 26 8 14 1024.1 1024.1 0.0
29/11:30am 14.8 10.1 5.9 55 4.3 W 20 32 11 17 1024.5 1024.5 0.0
29/11:00am 14.4 9.6 5.5 55 4.2 W 20 32 11 17 1025.1 1025.1 0.0
29/10:30am 13.9 9.3 5.8 58 3.8 W 19 28 10 15 1025.3 1025.3 0.0
29/10:00am 13.5 9.0 5.9 60 3.6 W 19 30 10 16 1025.2 1025.2 0.0
29/09:30am 12.9 8.1 5.6 61 3.4 WNW 20 33 11 18 1025.4 1025.4 0.0
29/09:00am 12.7 8.1 5.6 62 3.3 WNW 19 33 10 18 1025.3 1025.3 0.0
29/08:30am 11.9 7.7 5.8 66 2.8 WNW 17 30 9 16 1025.1 1025.1 0.0
29/08:00am 12.2 7.6 5.6 64 3.1 WNW 19 32 10 17 1025.0 1025.0 0.0
29/07:30am 12.2 6.9 5.1 62 3.3 W 22 37 12 20 1024.7 1024.7 0.0
29/07:00am 11.9 7.1 5.8 66 2.8 W 20 32 11 17 1024.6 1024.6 0.0
29/06:30am 11.9 5.9 5.3 64 3.0 WSW 26 32 14 17 1024.1 1024.1 0.0
29/06:00am 11.8 5.1 5.4 65 2.9 WSW 30 43 16 23 1023.8 1023.8 0.0
29/05:30am 12.1 6.1 5.3 63 3.1 WSW 26 39 14 21 1023.7 1023.7 0.0
29/05:00am 11.6 6.4 5.5 66 2.8 WSW 22 37 12 20 1023.7 1023.7 0.0
29/04:30am 11.5 7.6 5.4 66 2.8 WSW 15 19 8 10 1023.9 1023.9 0.0
29/04:00am 12.0 6.4 5.4 64 3.0 WSW 24 33 13 18 1023.7 1023.7 0.0
29/03:30am 11.9 6.4 5.8 66 2.8 WSW 24 35 13 19 1023.5 1023.5 0.0
29/03:00am 11.9 4.9 6.0 67 2.7 W 32 46 17 25 1023.4 1023.4 0.0
29/02:34am 12.1 5.8 5.9 66 2.9 W 28 46 15 25 1023.3 1023.3 0.0
29/02:30am 12.0 6.2 6.1 67 2.8 WSW 26 37 14 20 1023.4 1023.4 0.0
29/02:00am 12.1 6.4 6.6 69 2.6 W 26 33 14 18 1023.4 1023.4 0.0
29/01:30am 12.6 4.7 6.2 65 3.0 W 37 59 20 32 1022.9 1022.9 0.0
29/01:27am 12.4 4.5 6.2 66 2.9 W 37 59 20 32 1022.9 1022.9 0.0
29/01:00am 12.1 6.7 6.4 68 2.7 W 24 35 13 19 1023.2 1023.2 0.0
29/12:30am 12.6 5.1 6.2 65 3.0 WSW 35 57 19 31 1023.4 1023.4 0.0
29/12:24am 12.6 6.1 6.4 66 2.9 WSW 30 50 16 27 1023.2 1023.2 0.0
29/12:00am 12.6 5.6 6.2 65 3.0 W 32 44 17 24 1023.1 1023.1 0.0
 
Date/Time
EST
Temp
°C
App
Temp
°C
Dew
Point
Rel
Hum
%
Delta-T
°C
Wind Press
QNH
hPa
Press
MSL
hPa
Rain
since 9 am
mm
Dir
 
Spd
km/h
Gust
km/h
Spd
kts
Gust
kts
28/11:30pm 12.7 4.4 6.1 64 3.1 W 39 50 21 27 1023.0 1023.0 0.0
28/11:00pm 13.1 3.8 6.0 62 3.3 W 44 54 24 29 1023.0 1023.0 0.0
28/10:30pm 13.3 5.3 5.7 60 3.6 WSW 37 57 20 31 1023.0 1023.0 0.0
28/10:18pm 13.1 6.1 6.0 62 3.4 W 32 50 17 27 1023.2 1023.2 0.0
28/10:00pm 13.0 6.0 6.1 63 3.3 W 32 43 17 23 1023.1 1023.1 0.0
28/09:30pm 13.3 6.6 5.7 60 3.6 W 30 39 16 21 1023.0 1023.0 0.0
28/09:00pm 13.0 7.2 6.1 63 3.3 WNW 26 35 14 19 1022.9 1022.9 0.0
28/08:30pm 12.6 8.1 6.2 65 3.0 WNW 19 24 10 13 1023.3 1023.3 0.0
28/08:00pm 13.1 8.0 6.0 62 3.3 W 22 33 12 18 1023.4 1023.4 0.0
28/07:30pm 13.0 7.5 6.1 63 3.3 WNW 24 32 13 17 1023.1 1023.1 0.0
28/07:00pm 13.1 7.3 6.2 63 3.3 W 26 35 14 19 1023.0 1023.0 0.0
28/06:30pm 13.0 7.2 6.1 63 3.3 WNW 26 39 14 21 1022.6 1022.6 0.0
28/06:00pm 13.2 7.7 6.1 62 3.4 W 24 32 13 17 1022.2 1022.2 0.0
28/05:30pm 13.3 6.7 6.2 62 3.4 W 30 35 16 19 1021.9 1021.9 0.0
28/05:12pm 13.4 7.1 5.8 60 3.6 W 28 46 15 25 1021.8 1021.8 0.0
28/05:00pm 13.2 6.6 6.1 62 3.4 W 30 41 16 22 1021.6 1021.6 0.0
28/04:42pm 13.7 7.0 5.6 58 3.8 W 30 48 16 26 1021.9 1021.9 0.0
28/04:30pm 13.7 7.8 5.8 59 3.7 W 26 41 14 22 1022.1 1022.1 0.0
28/04:00pm 13.7 7.9 6.3 61 3.5 W 26 33 14 18 1022.0 1022.0 0.0
28/03:51pm 14.1 9.4 6.2 59 3.8 W 20 33 11 18 1021.8 1021.8 0.0
28/03:30pm 13.6 11.4 6.2 61 3.5 W 7 13 4 7 1021.7 1021.7 0.0
28/03:00pm 14.1 11.2 6.5 60 3.6 NW 11 20 6 11 1021.6 1021.6 0.0
28/02:30pm 13.7 10.8 6.3 61 3.5 NW 11 17 6 9 1021.9 1021.9 0.0
28/02:00pm 14.2 10.1 6.3 59 3.8 W 17 28 9 15 1022.1 1022.1 0.0
28/01:30pm 14.4 10.3 6.0 57 4.0 WNW 17 28 9 15 1022.3 1022.3 0.0
28/01:00pm 14.6 9.1 5.7 55 4.2 W 24 35 13 19 1022.4 1022.4 0.0
28/12:51pm 14.6 7.9 5.7 55 4.2 W 30 48 16 26 1022.3 1022.3 0.0
28/12:30pm 14.4 7.8 6.0 57 4.0 W 30 39 16 21 1022.7 1022.7 0.0
28/12:00pm 14.4 8.6 6.3 58 3.9 WSW 26 33 14 18 1023.0 1023.0 0.0
28/11:40am 14.4 8.1 5.7 56 4.1 WSW 28 52 15 28 1023.0 1023.0 0.0
28/11:30am 14.0 9.5 6.1 59 3.8 WSW 19 26 10 14 1023.2 1023.2 0.0
28/11:00am 13.1 10.5 6.0 62 3.3 NW 9 19 5 10 1023.4 1023.4 0.0
28/10:30am 12.3 9.2 5.5 63 3.2 N 11 13 6 7 1023.6 1023.6 0.0
28/10:00am 13.1 9.1 5.0 58 3.7 WNW 15 22 8 12 1023.9 1023.9 0.0
28/09:30am 12.2 8.2 4.9 61 3.3 WNW 15 19 8 10 1024.1 1024.1 0.0
28/09:00am 11.6 8.1 3.6 58 3.5 W 11 19 6 10 1023.8 1023.8 0.0
28/08:30am 11.1 7.5 3.2 58 3.5 NW 11 17 6 9 1023.9 1023.9 0.0
28/08:00am 10.3 5.9 2.9 60 3.2 WNW 15 20 8 11 1023.7 1023.7 0.0
28/07:30am 10.4 5.3 3.0 60 3.2 WNW 19 24 10 13 1023.1 1023.1 0.0
28/07:00am 9.9 5.6 3.2 63 2.9 W 15 22 8 12 1023.3 1023.3 0.0
28/06:30am 10.9 5.7 2.7 57 3.5 W 19 24 10 13 1023.0 1023.0 0.0
28/06:00am 10.2 7.5 2.6 59 3.2 W 6 9 3 5 1022.9 1022.9 0.0
28/05:30am 10.7 8.4 2.8 58 3.4 NW 4 9 2 5 1022.5 1022.5 0.0
28/05:00am 10.9 8.4 3.7 61 3.2 W 6 19 3 10 1022.7 1022.7 0.0
28/04:30am 11.3 7.2 4.1 61 3.2 WNW 15 28 8 15 1022.2 1022.2 0.0
28/04:00am 11.5 5.7 4.5 62 3.1 W 24 33 13 18 1022.0 1022.0 0.0
28/03:30am 11.6 1.2 4.3 61 3.3 W 48 61 26 33 1021.7 1021.7 0.0
28/03:07am 12.0 5.6 5.0 62 3.2 WSW 28 48 15 26 1022.1 1022.1 0.0
28/03:00am 12.0 8.1 7.1 72 2.3 WSW 17 28 9 15 1022.3 1022.3 0.0
28/02:30am 12.5 8.5 6.5 67 2.9 WNW 17 22 9 12 1021.6 1021.6 0.0
28/02:00am 12.6 9.2 6.0 64 3.1 NW 13 20 7 11 1020.9 1020.9 0.0
28/01:30am 12.4 9.4 6.2 66 2.9 NW 11 17 6 9 1020.7 1020.7 0.0
28/01:00am 12.6 9.2 5.8 63 3.2 NW 13 24 7 13 1020.9 1020.9 0.0
28/12:30am 12.7 9.2 5.6 62 3.3 NW 13 17 7 9 1020.7 1020.7 0.0
28/12:00am 12.5 8.6 5.4 62 3.3 WNW 15 24 8 13 1020.7 1020.7 0.0
 
Date/Time
EST
Temp
°C
App
Temp
°C
Dew
Point
Rel
Hum
%
Delta-T
°C
Wind Press
QNH
hPa
Press
MSL
hPa
Rain
since 9 am
mm
Dir
 
Spd
km/h
Gust
km/h
Spd
kts
Gust
kts
27/11:30pm 12.6 9.4 5.1 60 3.5 WNW 11 22 6 12 1020.6 1020.6 0.0
27/11:00pm 12.6 7.9 5.1 60 3.5 WNW 19 32 10 17 1020.2 1020.2 0.0
27/10:30pm 12.5 7.2 5.0 60 3.5 W 22 37 12 20 1020.3 1020.3 0.0
27/10:00pm 12.4 6.7 4.9 60 3.4 WNW 24 35 13 19 1020.3 1020.3 0.0
27/09:30pm 12.3 7.9 4.5 59 3.5 WNW 17 22 9 12 1020.3 1020.3 0.0
27/09:00pm 11.8 8.5 4.3 60 3.4 W 11 17 6 9 1020.2 1020.2 0.0
27/08:30pm 10.8 8.7 3.8 62 3.1 SSW 4 7 2 4 1020.3 1020.3 0.0
27/08:00pm 10.9 8.3 4.1 63 3.0 NW 7 13 4 7 1020.2 1020.2 0.0
27/07:30pm 11.0 7.8 4.9 66 2.8 NNW 11 15 6 8 1020.2 1020.2 0.0
27/07:00pm 11.3 8.3 4.1 61 3.2 NW 9 19 5 10 1020.1 1020.1 0.0
27/06:30pm 11.5 8.4 3.8 59 3.4 NW 9 15 5 8 1020.2 1020.2 0.0
27/06:00pm 11.9 9.1 3.2 55 3.8 NW 7 13 4 7 1020.1 1020.1 0.0
27/05:30pm 11.9 7.2 3.4 56 3.8 WNW 17 24 9 13 1020.0 1020.0 0.0
27/05:00pm 11.7 6.4 3.2 56 3.7 WNW 20 28 11 15 1020.1 1020.1 0.0
27/04:30pm 12.1 6.6 4.1 58 3.6 WNW 22 30 12 16 1020.2 1020.2 0.0
27/04:00pm 12.9 8.2 3.3 52 4.3 NW 17 30 9 16 1020.0 1020.0 0.0
27/03:30pm 13.1 7.1 3.5 52 4.3 W 24 35 13 19 1019.9 1019.9 0.0
27/03:00pm 13.4 7.1 3.5 51 4.4 WNW 26 39 14 21 1019.7 1019.7 0.0
27/02:30pm 13.6 6.5 3.4 50 4.6 WNW 30 39 16 21 1019.3 1019.3 0.0
27/02:00pm 13.7 7.2 2.9 48 4.8 WNW 26 37 14 20 1019.6 1019.6 0.0

Other Formats:

Comma delimited format used in spreadsheet applications
http://www.bom.gov.au/fwo/IDT60801/IDT60801.94988.axf

JavaScript Object Notation format (JSON) in row-major order
http://www.bom.gov.au/fwo/IDT60801/IDT60801.94988.json